createdAt,value
2019-05-17T00:02:08.127Z,9.72
2019-05-17T00:04:37.538Z,9.72
2019-05-17T00:07:07.086Z,9.70
2019-05-17T00:09:37.388Z,9.70
2019-05-17T00:12:07.564Z,9.71
2019-05-17T00:14:37.008Z,9.71
2019-05-17T00:17:07.132Z,9.54
2019-05-17T00:19:37.054Z,9.54
2019-05-17T00:22:07.351Z,9.54
2019-05-17T00:24:37.112Z,9.51
2019-05-17T00:27:06.897Z,9.51
2019-05-17T00:29:37.198Z,9.55
2019-05-17T00:32:06.714Z,9.46
2019-05-17T00:34:37.733Z,9.46
2019-05-17T00:37:07.376Z,9.47
2019-05-17T00:39:36.862Z,9.34
2019-05-17T00:42:07.036Z,9.34
2019-05-17T00:44:36.811Z,9.32
2019-05-17T00:47:06.686Z,9.29
2019-05-17T00:49:37.166Z,9.21
2019-05-17T00:52:07.211Z,9.21
2019-05-17T00:54:36.813Z,9.08
2019-05-17T00:57:07.504Z,9.14
2019-05-17T00:59:37.089Z,9.14
2019-05-17T01:02:07.110Z,9.10
2019-05-17T01:04:37.045Z,9.17
2019-05-17T01:07:07.091Z,9.17
2019-05-17T01:09:36.814Z,9.16
2019-05-17T01:12:07.083Z,9.15
2019-05-17T01:14:37.287Z,9.10
2019-05-17T01:17:07.305Z,9.05
2019-05-17T01:19:36.868Z,9.02
2019-05-17T01:22:07.545Z,9.02
2019-05-17T01:24:37.117Z,9.01
2019-05-17T01:27:06.731Z,9.01
2019-05-17T01:29:36.475Z,8.98
2019-05-17T01:32:06.854Z,8.95
2019-05-17T01:34:37.672Z,8.95
2019-05-17T01:37:07.918Z,8.91
2019-05-17T01:39:37.691Z,8.91
2019-05-17T01:42:07.211Z,8.80
2019-05-17T01:44:36.862Z,8.81
2019-05-17T01:47:07.405Z,8.79
2019-05-17T01:49:36.861Z,8.79
2019-05-17T01:52:07.477Z,8.80
2019-05-17T01:54:37.025Z,8.81
2019-05-17T01:57:07.309Z,8.74
2019-05-17T01:59:37.372Z,8.74
2019-05-17T02:02:10.392Z,8.73
2019-05-17T02:04:39.764Z,8.72
2019-05-17T02:07:09.138Z,8.72
2019-05-17T02:09:41.699Z,8.70
2019-05-17T02:12:09.752Z,8.61
2019-05-17T02:14:39.146Z,8.61
2019-05-17T02:17:08.509Z,8.66
2019-05-17T02:19:37.945Z,8.58
2019-05-17T02:22:07.585Z,8.61
2019-05-17T02:24:37.203Z,8.51
2019-05-17T02:27:06.845Z,8.51
2019-05-17T02:29:36.248Z,8.54
2019-05-17T02:32:05.873Z,8.45
2019-05-17T02:34:35.392Z,8.45
2019-05-17T02:37:04.777Z,8.44
2019-05-17T02:39:51.958Z,8.44
2019-05-17T02:42:05.485Z,8.44
2019-05-17T02:44:34.866Z,8.39
2019-05-17T02:47:04.305Z,8.33
2019-05-17T02:49:33.682Z,8.33
2019-05-17T02:52:03.525Z,8.31
2019-05-17T02:54:33.099Z,8.13
2019-05-17T02:57:05.684Z,8.13
2019-05-17T02:59:35.058Z,8.19
2019-05-17T03:02:04.562Z,8.24
2019-05-17T03:04:33.933Z,8.24
2019-05-17T03:07:04.028Z,8.21
2019-05-17T03:09:33.969Z,8.18
2019-05-17T03:12:03.973Z,8.18
2019-05-17T03:14:33.536Z,8.14
2019-05-17T03:17:03.563Z,8.14
2019-05-17T03:19:33.296Z,8.08
2019-05-17T03:22:07.181Z,8.11
2019-05-17T03:24:33.794Z,8.11
2019-05-17T03:27:03.393Z,8.09
2019-05-17T03:29:33.618Z,8.03
2019-05-17T03:32:08.470Z,8.00
2019-05-17T03:34:37.010Z,8.02
2019-05-17T03:37:07.587Z,8.03
2019-05-17T03:39:37.430Z,7.94
2019-05-17T03:42:06.811Z,7.92
2019-05-17T03:44:36.257Z,7.92
2019-05-17T03:47:06.106Z,7.90
2019-05-17T03:49:39.133Z,7.89
2019-05-17T03:52:06.627Z,7.93
2019-05-17T03:54:36.019Z,7.90
2019-05-17T03:57:05.436Z,7.92
2019-05-17T03:59:34.806Z,7.94
2019-05-17T04:02:04.302Z,7.93
2019-05-17T04:04:33.753Z,7.97
2019-05-17T04:07:03.640Z,8.08
2019-05-17T04:09:37.396Z,8.09
2019-05-17T04:12:04.351Z,8.17
2019-05-17T04:14:33.790Z,8.30
2019-05-17T04:17:03.405Z,8.35
2019-05-17T04:19:33.676Z,8.42
2019-05-17T04:22:04.009Z,8.50
2019-05-17T04:24:33.538Z,8.44
2019-05-17T04:27:03.785Z,8.55
2019-05-17T04:29:33.626Z,8.55
2019-05-17T04:32:03.990Z,8.67
2019-05-17T04:34:34.014Z,8.70
2019-05-17T04:37:04.551Z,8.64
2019-05-17T04:39:34.034Z,8.64
2019-05-17T04:42:04.183Z,8.70
2019-05-17T04:44:33.920Z,8.70
2019-05-17T04:47:04.800Z,8.73
2019-05-17T04:49:34.208Z,8.75
2019-05-17T04:52:03.909Z,8.73
2019-05-17T04:54:33.675Z,8.63
2019-05-17T04:57:03.246Z,8.74
2019-05-17T04:59:33.825Z,8.64
2019-05-17T05:02:03.897Z,8.73
2019-05-17T05:04:37.802Z,8.77
2019-05-17T05:07:04.591Z,8.77
2019-05-17T05:09:33.985Z,8.72
2019-05-17T05:12:06.141Z,8.85
2019-05-17T05:14:34.548Z,8.90
2019-05-17T05:17:04.049Z,8.90
2019-05-17T05:19:33.561Z,8.91
2019-05-17T05:22:04.483Z,8.98
2019-05-17T05:24:34.605Z,9.09
2019-05-17T05:27:06.775Z,9.09
2019-05-17T05:29:36.167Z,9.05
2019-05-17T05:32:05.712Z,9.10
2019-05-17T05:34:35.168Z,9.23
2019-05-17T05:37:04.548Z,9.23
2019-05-17T05:39:34.170Z,9.36
2019-05-17T05:42:07.926Z,9.28
2019-05-17T05:44:34.651Z,9.58
2019-05-17T05:47:06.786Z,9.74
2019-05-17T05:49:36.190Z,9.77
2019-05-17T05:52:05.567Z,9.77
2019-05-17T05:54:34.992Z,9.82
2019-05-17T05:57:04.369Z,9.90
2019-05-17T05:59:35.480Z,9.93
2019-05-17T06:02:04.997Z,9.88
2019-05-17T06:04:34.391Z,10.02
2019-05-17T06:07:03.790Z,10.08
2019-05-17T06:09:33.433Z,10.06
2019-05-17T06:12:03.496Z,10.12
2019-05-17T06:14:32.923Z,10.12
2019-05-17T06:17:03.195Z,10.02
2019-05-17T06:19:32.628Z,10.02
2019-05-17T06:22:02.802Z,10.11
2019-05-17T06:24:32.385Z,10.24
2019-05-17T06:27:02.108Z,10.32
2019-05-17T06:29:32.754Z,10.46
2019-05-17T06:32:02.726Z,10.57
2019-05-17T06:34:32.890Z,10.63
2019-05-17T06:37:03.457Z,10.81
2019-05-17T06:39:33.060Z,10.92
2019-05-17T06:42:02.841Z,10.93
2019-05-17T06:44:32.762Z,11.03
2019-05-17T06:47:03.658Z,11.25
2019-05-17T06:49:33.117Z,11.37
2019-05-17T06:52:02.657Z,11.41
2019-05-17T06:54:33.132Z,11.62
2019-05-17T06:57:04.012Z,11.76
2019-05-17T06:59:33.504Z,11.78
2019-05-17T07:02:02.910Z,12.01
2019-05-17T07:04:32.433Z,12.08
2019-05-17T07:07:20.695Z,12.22
2019-05-17T07:09:50.250Z,12.32
2019-05-17T07:12:20.192Z,12.47
2019-05-17T07:14:50.739Z,12.49
2019-05-17T07:17:20.254Z,12.56
2019-05-17T07:19:50.730Z,12.69
2019-05-17T07:22:21.190Z,12.64
2019-05-17T07:24:50.959Z,12.73
2019-05-17T07:27:20.371Z,12.82
2019-05-17T07:29:49.849Z,12.95
2019-05-17T07:32:19.491Z,12.97
2019-05-17T07:34:50.790Z,12.84
2019-05-17T07:37:20.113Z,13.11
2019-05-17T07:40:00.916Z,13.18
2019-05-17T07:42:20.694Z,13.31
2019-05-17T07:44:50.235Z,13.43
2019-05-17T07:47:20.310Z,13.61
2019-05-17T07:49:49.874Z,13.62
2019-05-17T07:52:20.592Z,13.72
2019-05-17T07:54:50.887Z,14.22
2019-05-17T07:57:20.786Z,14.43
2019-05-17T07:59:50.796Z,14.41
2019-05-17T08:02:20.466Z,14.45
2019-05-17T08:04:50.245Z,14.29
2019-05-17T08:07:19.817Z,14.29
2019-05-17T08:09:50.649Z,14.24
2019-05-17T08:12:20.127Z,14.42
2019-05-17T08:14:50.244Z,14.37
2019-05-17T08:17:20.073Z,14.54
2019-05-17T08:19:49.907Z,14.49
2019-05-17T08:22:20.237Z,14.50
2019-05-17T08:24:49.741Z,14.64
2019-05-17T08:27:20.078Z,14.46
2019-05-17T08:29:50.904Z,14.21
2019-05-17T08:32:20.911Z,14.55
2019-05-17T08:34:51.904Z,14.80
2019-05-17T08:37:21.445Z,15.00
2019-05-17T08:39:50.795Z,15.25
2019-05-17T08:42:20.538Z,15.43
2019-05-17T08:44:50.009Z,15.33
2019-05-17T08:47:20.957Z,15.40
2019-05-17T08:49:50.542Z,15.52
2019-05-17T08:52:20.154Z,15.69
2019-05-17T08:54:50.047Z,15.58
2019-05-17T08:57:20.447Z,15.71
2019-05-17T08:59:49.993Z,15.72
2019-05-17T09:02:19.860Z,15.69
2019-05-17T09:04:49.878Z,15.76
2019-05-17T09:07:20.372Z,15.56
2019-05-17T09:09:50.364Z,15.36
2019-05-17T09:12:20.616Z,15.05
2019-05-17T09:14:50.286Z,15.25
2019-05-17T09:17:19.648Z,15.33
2019-05-17T09:19:50.962Z,15.55
2019-05-17T09:22:20.142Z,15.50
2019-05-17T09:24:50.005Z,15.52
2019-05-17T09:27:19.905Z,15.62
2019-05-17T09:29:49.813Z,15.83
2019-05-17T09:32:20.112Z,15.85
2019-05-17T09:34:50.048Z,15.80
2019-05-17T09:37:22.443Z,15.58
2019-05-17T09:39:50.902Z,15.15
2019-05-17T09:42:20.931Z,15.38
2019-05-17T09:44:50.576Z,15.66
2019-05-17T09:47:20.650Z,15.79
2019-05-17T09:49:50.309Z,15.97
2019-05-17T09:52:20.226Z,15.67
2019-05-17T09:54:50.468Z,15.56
2019-05-17T09:57:20.498Z,15.50
2019-05-17T09:59:49.986Z,15.52
2019-05-17T10:02:20.358Z,15.81
2019-05-17T10:04:50.395Z,16.18
2019-05-17T10:07:20.706Z,16.31
2019-05-17T10:09:50.898Z,16.29
2019-05-17T10:12:20.453Z,16.60
2019-05-17T10:14:49.965Z,16.52
2019-05-17T10:17:21.166Z,16.95
2019-05-17T10:19:50.999Z,17.20
2019-05-17T10:22:20.741Z,17.28
2019-05-17T10:24:50.151Z,17.54
2019-05-17T10:27:20.111Z,17.42
2019-05-17T10:29:50.150Z,17.48
2019-05-17T10:32:20.573Z,17.58
2019-05-17T10:34:50.203Z,17.66
2019-05-17T10:37:20.304Z,17.80
2019-05-17T10:39:50.359Z,17.96
2019-05-17T10:42:20.910Z,18.29
2019-05-17T10:44:51.329Z,18.09
2019-05-17T10:47:21.620Z,17.96
2019-05-17T10:49:51.188Z,17.91
2019-05-17T10:52:20.817Z,18.14
2019-05-17T10:54:50.388Z,18.14
2019-05-17T10:57:19.826Z,18.12
2019-05-17T10:59:49.942Z,18.13
2019-05-17T11:02:19.817Z,18.10
2019-05-17T11:04:50.523Z,18.35
2019-05-17T11:07:20.273Z,18.02
2019-05-17T11:09:50.788Z,18.22
2019-05-17T11:12:20.875Z,18.69
2019-05-17T11:14:56.096Z,18.75
2019-05-17T11:17:21.490Z,19.10
2019-05-17T11:19:50.870Z,19.28
2019-05-17T11:22:20.408Z,18.98
2019-05-17T11:24:49.815Z,19.21
2019-05-17T11:27:19.165Z,18.94
2019-05-17T11:29:48.549Z,18.95
2019-05-17T11:32:18.090Z,19.12
2019-05-17T11:34:47.617Z,19.31
2019-05-17T11:37:17.019Z,19.10
2019-05-17T11:39:46.534Z,19.18
2019-05-17T11:42:15.989Z,19.29
2019-05-17T11:44:45.347Z,19.22
2019-05-17T11:47:14.739Z,19.25
2019-05-17T11:49:44.134Z,19.19
2019-05-17T11:52:13.705Z,19.09
2019-05-17T11:54:43.161Z,19.45
2019-05-17T11:57:12.602Z,19.76
2019-05-17T11:59:41.954Z,19.82
2019-05-17T12:02:11.554Z,20.50
2019-05-17T12:04:40.959Z,20.91
2019-05-17T12:07:10.656Z,21.00
2019-05-17T12:09:40.177Z,20.94
2019-05-17T12:12:09.726Z,20.65
2019-05-17T12:14:39.113Z,20.17
2019-05-17T12:17:08.611Z,20.22
2019-05-17T12:19:38.444Z,20.78
2019-05-17T12:22:07.805Z,22.06
2019-05-17T12:24:37.206Z,23.39
2019-05-17T12:27:06.582Z,24.02
2019-05-17T12:29:35.982Z,24.21
2019-05-17T12:32:06.027Z,23.69
2019-05-17T12:34:35.598Z,22.58
2019-05-17T12:37:07.340Z,22.90
2019-05-17T12:39:36.726Z,23.43
2019-05-17T12:42:06.217Z,24.59
2019-05-17T12:44:37.283Z,25.28
2019-05-17T12:47:06.921Z,25.10
2019-05-17T12:49:36.283Z,26.02
2019-05-17T12:52:05.785Z,26.44
2019-05-17T12:54:35.168Z,26.33
2019-05-17T12:57:05.202Z,25.58
2019-05-17T12:59:34.601Z,26.76
2019-05-17T13:02:04.045Z,27.53
2019-05-17T13:04:33.410Z,27.51
2019-05-17T13:07:02.803Z,28.29
2019-05-17T13:09:32.176Z,28.95
2019-05-17T13:12:01.569Z,29.83
2019-05-17T13:14:32.506Z,29.87
2019-05-17T13:17:01.906Z,29.42
2019-05-17T13:19:31.280Z,28.89
2019-05-17T13:22:00.689Z,27.85
2019-05-17T13:24:30.048Z,28.52
2019-05-17T13:26:59.549Z,28.71
2019-05-17T13:29:28.945Z,28.66
2019-05-17T13:31:58.419Z,29.14
2019-05-17T13:34:27.825Z,29.81
2019-05-17T13:36:57.262Z,30.24
2019-05-17T13:39:26.680Z,30.28
2019-05-17T13:41:56.046Z,31.21
2019-05-17T13:44:25.546Z,31.11
2019-05-17T13:46:54.940Z,30.01
2019-05-17T13:49:24.333Z,30.18
2019-05-17T13:51:53.702Z,30.97
2019-05-17T13:54:23.103Z,31.89
2019-05-17T13:56:52.469Z,31.84
2019-05-17T13:59:21.869Z,30.80
2019-05-17T14:01:51.240Z,30.62
2019-05-17T14:04:20.607Z,30.01
2019-05-17T14:06:50.033Z,28.85
2019-05-17T14:09:19.393Z,27.41
2019-05-17T14:11:48.831Z,26.79
2019-05-17T14:14:18.253Z,25.93
2019-05-17T14:16:47.630Z,25.16
2019-05-17T14:19:16.990Z,24.15
2019-05-17T14:21:46.572Z,23.98
2019-05-17T14:24:15.945Z,24.26
2019-05-17T14:26:45.340Z,24.24
2019-05-17T14:29:14.822Z,23.73
2019-05-17T14:31:44.282Z,23.43
2019-05-17T14:34:13.742Z,23.40
2019-05-17T14:36:43.181Z,23.30
2019-05-17T14:39:12.580Z,23.34
2019-05-17T14:41:42.020Z,22.97
2019-05-17T14:44:11.427Z,22.72
2019-05-17T14:46:40.820Z,22.45
2019-05-17T14:49:10.214Z,22.21
2019-05-17T14:51:39.571Z,22.00
2019-05-17T14:54:08.964Z,21.78
2019-05-17T14:56:38.325Z,21.66
2019-05-17T14:59:07.728Z,21.34
2019-05-17T15:01:37.197Z,21.23
2019-05-17T15:04:06.598Z,22.15
2019-05-17T15:06:35.972Z,23.37
2019-05-17T15:09:06.685Z,23.89
2019-05-17T15:11:36.080Z,23.85
2019-05-17T15:14:05.962Z,23.40
2019-05-17T15:16:35.408Z,23.10
2019-05-17T15:19:04.873Z,22.68
2019-05-17T15:21:34.255Z,22.65
2019-05-17T15:24:03.637Z,22.36
2019-05-17T15:26:35.668Z,22.32
2019-05-17T15:29:04.381Z,22.22
2019-05-17T15:31:33.827Z,21.97
2019-05-17T15:34:03.218Z,21.71
2019-05-17T15:36:32.660Z,21.33
2019-05-17T15:39:02.193Z,21.50
2019-05-17T15:41:31.590Z,21.69
2019-05-17T15:44:01.072Z,21.77
2019-05-17T15:46:30.474Z,21.74
2019-05-17T15:48:59.845Z,21.78
2019-05-17T15:51:29.214Z,21.42
2019-05-17T15:53:58.707Z,21.42
2019-05-17T15:56:28.095Z,21.53
2019-05-17T15:58:57.486Z,21.29
2019-05-17T16:01:26.868Z,20.86
2019-05-17T16:03:56.261Z,20.74
2019-05-17T16:06:25.632Z,21.82
2019-05-17T16:08:55.033Z,23.41
2019-05-17T16:11:24.500Z,24.27
2019-05-17T16:13:53.999Z,23.96
2019-05-17T16:16:23.462Z,23.47
2019-05-17T16:18:52.882Z,22.86
2019-05-17T16:21:22.359Z,22.35
2019-05-17T16:23:53.408Z,22.05
2019-05-17T16:26:22.864Z,22.08
2019-05-17T16:28:52.227Z,21.72
2019-05-17T16:31:21.615Z,21.75
2019-05-17T16:33:51.149Z,21.43
2019-05-17T16:36:20.638Z,21.07
2019-05-17T16:38:50.061Z,20.83
2019-05-17T16:41:19.509Z,20.88
2019-05-17T16:43:48.883Z,20.41
2019-05-17T16:46:18.270Z,20.11
2019-05-17T16:48:47.664Z,20.13
2019-05-17T16:51:17.101Z,20.23
2019-05-17T16:53:46.547Z,20.25
2019-05-17T16:56:15.933Z,20.41
2019-05-17T16:58:45.317Z,20.60
2019-05-17T17:01:14.703Z,20.71
2019-05-17T17:03:44.885Z,20.63
2019-05-17T17:06:14.360Z,20.55
2019-05-17T17:08:44.309Z,20.62
2019-05-17T17:11:13.794Z,20.81
2019-05-17T17:13:43.208Z,21.36
2019-05-17T17:16:12.568Z,21.57
2019-05-17T17:18:41.965Z,21.64
2019-05-17T17:21:11.601Z,21.91
2019-05-17T17:23:41.111Z,22.02
2019-05-17T17:26:10.483Z,21.85
2019-05-17T17:28:39.971Z,21.76
2019-05-17T17:31:13.798Z,21.41
2019-05-17T17:33:43.158Z,21.21
2019-05-17T17:36:12.623Z,21.14
2019-05-17T17:38:42.000Z,21.03
2019-05-17T17:41:11.389Z,20.95
2019-05-17T17:43:40.760Z,20.69
2019-05-17T17:46:10.155Z,20.39
2019-05-17T17:48:39.542Z,20.51
2019-05-17T17:51:09.124Z,20.35
2019-05-17T17:53:38.507Z,20.43
2019-05-17T17:56:07.911Z,20.45
2019-05-17T17:58:37.380Z,20.18
2019-05-17T18:01:06.872Z,19.89
2019-05-17T18:03:36.234Z,19.78
2019-05-17T18:06:05.765Z,19.88
2019-05-17T18:08:35.151Z,19.91
2019-05-17T18:11:04.542Z,19.73
2019-05-17T18:13:33.951Z,19.59
2019-05-17T18:16:03.330Z,19.47
2019-05-17T18:18:32.719Z,19.16
2019-05-17T18:21:02.218Z,18.98
2019-05-17T18:23:31.667Z,18.84
2019-05-17T18:26:01.065Z,18.67
2019-05-17T18:28:30.516Z,18.52
2019-05-17T18:30:59.977Z,18.44
2019-05-17T18:33:29.486Z,18.33
2019-05-17T18:35:58.857Z,18.20
2019-05-17T18:38:30.850Z,17.99
2019-05-17T18:41:00.263Z,17.90
2019-05-17T18:43:29.646Z,17.85
2019-05-17T18:45:59.064Z,17.74
2019-05-17T18:48:28.434Z,17.67
2019-05-17T18:50:57.833Z,17.56
2019-05-17T18:53:27.564Z,17.43
2019-05-17T18:55:56.993Z,17.28
2019-05-17T18:58:26.360Z,17.15
2019-05-17T19:00:55.873Z,16.99
2019-05-17T19:03:25.259Z,16.90
2019-05-17T19:05:54.757Z,16.90
2019-05-17T19:08:24.224Z,16.82
2019-05-17T19:10:53.744Z,16.75
2019-05-17T19:13:23.115Z,16.66
2019-05-17T19:15:52.479Z,16.59
2019-05-17T19:18:21.866Z,16.52
2019-05-17T19:20:51.279Z,16.52
2019-05-17T19:23:20.639Z,16.46
2019-05-17T19:25:50.250Z,16.37
2019-05-17T19:28:19.901Z,16.28
2019-05-17T19:30:50.289Z,16.27
2019-05-17T19:33:19.796Z,16.19
2019-05-17T19:35:49.177Z,16.13
2019-05-17T19:38:18.566Z,16.06
2019-05-17T19:40:47.975Z,16.05
2019-05-17T19:43:17.387Z,15.96
2019-05-17T19:45:46.756Z,15.88
2019-05-17T19:48:19.674Z,15.84
2019-05-17T19:50:47.949Z,15.79
2019-05-17T19:53:17.340Z,15.70
2019-05-17T19:55:46.854Z,15.67
2019-05-17T19:58:16.250Z,15.67
2019-05-17T20:00:45.902Z,15.63
2019-05-17T20:03:15.282Z,15.59
2019-05-17T20:05:44.688Z,15.51
2019-05-17T20:08:14.111Z,15.46
2019-05-17T20:10:43.523Z,15.42
2019-05-17T20:13:13.803Z,15.36
2019-05-17T20:15:43.223Z,15.32
2019-05-17T20:18:15.140Z,15.29
2019-05-17T20:20:44.806Z,15.24
2019-05-17T20:23:14.235Z,15.20
2019-05-17T20:25:44.412Z,15.15
2019-05-17T20:28:16.412Z,15.13
2019-05-17T20:30:45.797Z,15.01
2019-05-17T20:33:15.232Z,15.01
2019-05-17T20:35:44.607Z,14.95
2019-05-17T20:38:14.027Z,14.89
2019-05-17T20:40:43.542Z,14.84
2019-05-17T20:43:13.099Z,14.76
2019-05-17T20:45:42.682Z,14.77
2019-05-17T20:48:12.073Z,14.73
2019-05-17T20:50:41.586Z,14.67
2019-05-17T20:53:18.734Z,14.66
2019-05-17T20:55:42.682Z,14.62
2019-05-17T20:58:12.169Z,14.63
2019-05-17T21:00:41.757Z,14.60
2019-05-17T21:03:13.829Z,14.59
2019-05-17T21:05:42.394Z,14.50
2019-05-17T21:08:11.780Z,14.49
2019-05-17T21:10:41.200Z,14.46
2019-05-17T21:13:10.589Z,14.41
2019-05-17T21:15:47.358Z,14.40
2019-05-17T21:18:11.083Z,14.35
2019-05-17T21:20:40.517Z,14.33
2019-05-17T21:23:09.922Z,14.22
2019-05-17T21:25:39.320Z,14.19
2019-05-17T21:28:08.720Z,14.10
2019-05-17T21:30:38.251Z,14.10
2019-05-17T21:33:07.624Z,14.11
2019-05-17T21:35:37.005Z,14.07
2019-05-17T21:38:06.414Z,14.07
2019-05-17T21:40:35.797Z,14.01
2019-05-17T21:43:05.240Z,13.90
2019-05-17T21:45:34.670Z,13.85
2019-05-17T21:48:04.070Z,13.79
2019-05-17T21:50:33.453Z,13.79
2019-05-17T21:53:02.867Z,13.71
2019-05-17T21:55:32.332Z,13.70
2019-05-17T21:58:01.865Z,13.73
2019-05-17T22:01:06.490Z,13.65
2019-05-17T22:03:36.036Z,13.67
2019-05-17T22:06:05.426Z,13.60
2019-05-17T22:08:34.907Z,13.58
2019-05-17T22:11:04.312Z,13.53
2019-05-17T22:13:33.693Z,13.51
2019-05-17T22:16:18.237Z,13.46
2019-05-17T22:18:34.250Z,13.39
2019-05-17T22:21:03.678Z,13.44
2019-05-17T22:23:33.097Z,13.29
2019-05-17T22:26:02.488Z,13.32
2019-05-17T22:28:31.879Z,13.35
2019-05-17T22:31:01.270Z,13.39
2019-05-17T22:33:30.852Z,13.36
2019-05-17T22:36:00.254Z,13.32
2019-05-17T22:38:29.687Z,13.26
2019-05-17T22:40:59.108Z,13.19
2019-05-17T22:43:28.592Z,13.20
2019-05-17T22:45:58.006Z,13.17
2019-05-17T22:48:27.385Z,13.15
2019-05-17T22:50:56.766Z,13.11
2019-05-17T22:53:26.232Z,13.16
2019-05-17T22:55:55.620Z,13.08
2019-05-17T22:58:25.029Z,13.04
2019-05-17T23:00:54.420Z,13.02
2019-05-17T23:03:23.846Z,13.00
2019-05-17T23:05:53.236Z,12.96
2019-05-17T23:08:22.623Z,12.93
2019-05-17T23:10:52.030Z,12.94
2019-05-17T23:13:21.405Z,12.91
2019-05-17T23:16:04.745Z,12.89
2019-05-17T23:18:34.843Z,12.75
2019-05-17T23:21:04.602Z,12.68
2019-05-17T23:23:33.989Z,12.63
2019-05-17T23:26:03.403Z,12.63
2019-05-17T23:28:32.812Z,12.53
2019-05-17T23:31:02.220Z,12.53
2019-05-17T23:33:31.655Z,12.37
2019-05-17T23:36:01.039Z,12.38
2019-05-17T23:38:30.442Z,12.32
2019-05-17T23:40:59.840Z,12.30
2019-05-17T23:43:29.367Z,12.24
2019-05-17T23:45:58.748Z,12.24
2019-05-17T23:48:28.153Z,12.25
2019-05-17T23:50:58.042Z,12.10
2019-05-17T23:53:27.449Z,12.12
2019-05-17T23:55:56.834Z,12.07
2019-05-17T23:58:26.269Z,12.05
